createdAt,value
2018-12-10T00:01:57.504Z,6.60
2018-12-10T00:04:31.471Z,6.60
2018-12-10T00:07:05.221Z,6.60
2018-12-10T00:09:39.254Z,6.70
2018-12-10T00:12:13.035Z,6.70
2018-12-10T00:14:47.050Z,6.70
2018-12-10T00:17:20.991Z,6.80
2018-12-10T00:19:55.028Z,6.70
2018-12-10T00:22:28.943Z,6.70
2018-12-10T00:25:02.296Z,6.70
2018-12-10T00:27:36.110Z,6.70
2018-12-10T00:30:10.135Z,6.70
2018-12-10T00:32:43.838Z,6.70
2018-12-10T00:35:17.860Z,6.60
2018-12-10T00:37:51.754Z,6.60
2018-12-10T00:40:25.774Z,6.50
2018-12-10T00:42:59.774Z,6.50
2018-12-10T00:45:33.518Z,6.50
2018-12-10T00:48:07.395Z,6.50
2018-12-10T00:50:41.434Z,6.50
2018-12-10T00:53:15.371Z,6.50
2018-12-10T00:55:49.444Z,6.50
2018-12-10T00:58:23.515Z,6.50
2018-12-10T01:01:01.195Z,6.40
2018-12-10T01:03:35.227Z,6.40
2018-12-10T01:06:09.223Z,6.50
2018-12-10T01:08:43.370Z,6.40
2018-12-10T01:11:17.172Z,6.40
2018-12-10T01:13:51.148Z,6.40
2018-12-10T01:16:25.028Z,6.40
2018-12-10T01:18:59.066Z,6.40
2018-12-10T01:21:32.855Z,6.40
2018-12-10T01:24:06.978Z,6.40
2018-12-10T01:26:40.879Z,6.40
2018-12-10T01:29:14.973Z,6.30
2018-12-10T01:31:48.779Z,6.30
2018-12-10T01:34:22.727Z,6.30
2018-12-10T01:36:56.717Z,6.20
2018-12-10T01:39:30.759Z,6.20
2018-12-10T01:42:08.563Z,6.10
2018-12-10T01:44:42.421Z,6.10
2018-12-10T01:47:20.245Z,6.00
2018-12-10T01:49:56.390Z,5.90
2018-12-10T01:52:30.272Z,5.90
2018-12-10T01:55:04.465Z,5.80
2018-12-10T01:57:38.355Z,5.70
2018-12-10T02:00:12.398Z,5.70
2018-12-10T02:02:46.514Z,5.70
2018-12-10T02:05:20.663Z,5.70
2018-12-10T02:07:58.570Z,5.60
2018-12-10T02:10:32.612Z,5.60
2018-12-10T02:13:06.626Z,5.50
2018-12-10T02:15:44.538Z,5.50
2018-12-10T02:18:18.639Z,5.60
2018-12-10T02:20:56.383Z,5.60
2018-12-10T02:23:30.406Z,5.60
2018-12-10T02:26:04.520Z,5.70
2018-12-10T02:28:44.006Z,5.70
2018-12-10T02:31:17.283Z,5.70
2018-12-10T02:33:55.537Z,5.80
2018-12-10T02:36:29.102Z,5.80
2018-12-10T02:39:04.146Z,5.80
2018-12-10T02:41:38.195Z,5.90
2018-12-10T02:44:12.327Z,5.90
2018-12-10T02:46:46.163Z,5.90
2018-12-10T02:49:20.122Z,5.90
2018-12-10T02:51:54.067Z,5.90
2018-12-10T02:54:27.770Z,5.90
2018-12-10T02:59:42.345Z,5.90
2018-12-10T03:02:16.137Z,5.80
2018-12-10T03:04:53.910Z,5.80
2018-12-10T03:07:28.048Z,5.80
2018-12-10T03:10:04.820Z,5.80
2018-12-10T03:12:40.920Z,5.80
2018-12-10T03:15:14.153Z,5.80
2018-12-10T03:17:48.237Z,5.80
2018-12-10T03:20:21.475Z,5.80
2018-12-10T03:22:55.565Z,5.80
2018-12-10T03:25:29.715Z,5.80
2018-12-10T03:28:03.708Z,5.80
2018-12-10T03:30:37.629Z,5.70
2018-12-10T03:33:11.637Z,5.70
2018-12-10T03:35:45.794Z,5.70
2018-12-10T03:38:19.851Z,5.70
2018-12-10T03:40:53.658Z,5.80
2018-12-10T03:43:27.569Z,5.80
2018-12-10T03:46:01.437Z,5.80
2018-12-10T03:48:35.430Z,5.80
2018-12-10T03:51:09.191Z,5.80
2018-12-10T03:53:43.050Z,5.80
2018-12-10T03:56:16.951Z,5.80
2018-12-10T03:58:50.788Z,5.80
2018-12-10T04:01:28.512Z,5.70
2018-12-10T04:04:02.643Z,5.70
2018-12-10T04:06:36.807Z,5.70
2018-12-10T04:09:10.766Z,5.80
2018-12-10T04:11:44.785Z,5.80
2018-12-10T04:14:18.579Z,5.70
2018-12-10T04:16:52.308Z,5.70
2018-12-10T04:19:30.345Z,5.70
2018-12-10T04:22:08.243Z,5.70
2018-12-10T04:24:42.224Z,5.70
2018-12-10T04:27:16.011Z,5.60
2018-12-10T04:29:50.028Z,5.60
2018-12-10T04:32:23.884Z,5.60
2018-12-10T04:34:55.089Z,5.60
2018-12-10T04:37:28.699Z,5.60
2018-12-10T04:40:02.776Z,5.40
2018-12-10T04:42:36.780Z,5.10
2018-12-10T04:45:10.765Z,4.60
2018-12-10T04:47:42.099Z,4.40
2018-12-10T04:50:15.760Z,4.20
2018-12-10T04:52:53.608Z,4.00
2018-12-10T04:55:27.689Z,3.90
2018-12-10T04:58:01.419Z,3.90
2018-12-10T05:00:35.252Z,3.80
2018-12-10T05:03:09.210Z,3.80
2018-12-10T05:05:43.277Z,3.70
2018-12-10T05:08:17.305Z,3.70
2018-12-10T05:10:51.336Z,3.60
2018-12-10T05:13:25.402Z,3.60
2018-12-10T05:15:59.541Z,3.50
2018-12-10T05:18:33.397Z,3.50
2018-12-10T05:21:07.423Z,3.60
2018-12-10T05:23:41.353Z,3.60
2018-12-10T05:26:15.203Z,3.80
2018-12-10T05:28:49.095Z,3.80
2018-12-10T05:31:22.916Z,3.80
2018-12-10T05:33:56.814Z,3.70
2018-12-10T05:36:30.665Z,3.70
2018-12-10T05:39:04.971Z,3.70
2018-12-10T05:41:36.445Z,3.70
2018-12-10T05:44:09.863Z,3.70
2018-12-10T05:46:45.891Z,3.70
2018-12-10T05:49:19.837Z,3.70
2018-12-10T05:51:53.692Z,3.80
2018-12-10T05:54:26.925Z,3.90
2018-12-10T05:57:04.579Z,4.00
2018-12-10T05:59:38.479Z,4.00
2018-12-10T06:02:12.561Z,4.20
2018-12-10T06:04:46.387Z,4.20
2018-12-10T06:07:20.361Z,4.30
2018-12-10T06:09:54.476Z,4.40
2018-12-10T06:12:28.656Z,4.40
2018-12-10T06:15:05.704Z,4.50
2018-12-10T06:17:39.837Z,4.60
2018-12-10T06:20:13.583Z,4.60
2018-12-10T06:22:47.663Z,4.60
2018-12-10T06:25:21.488Z,4.60
2018-12-10T06:27:55.612Z,4.70
2018-12-10T06:30:33.253Z,4.70
2018-12-10T06:33:07.429Z,4.70
2018-12-10T06:35:41.425Z,4.70
2018-12-10T06:38:15.255Z,4.70
2018-12-10T06:40:49.139Z,4.60
2018-12-10T06:43:22.818Z,4.60
2018-12-10T06:45:56.663Z,4.70
2018-12-10T06:48:30.573Z,4.70
2018-12-10T06:51:04.398Z,4.70
2018-12-10T06:53:38.532Z,4.70
2018-12-10T06:56:12.644Z,4.80
2018-12-10T06:58:46.504Z,4.80
2018-12-10T07:01:20.498Z,4.80
2018-12-10T07:03:54.525Z,4.80
2018-12-10T07:06:28.424Z,4.80
2018-12-10T07:09:02.270Z,4.80
2018-12-10T07:11:36.302Z,4.80
2018-12-10T07:14:10.056Z,4.80
2018-12-10T07:16:44.031Z,4.70
2018-12-10T07:19:18.127Z,4.80
2018-12-10T07:29:34.212Z,4.90
2018-12-10T07:32:08.460Z,4.90
2018-12-10T07:34:43.330Z,4.90
2018-12-10T07:37:17.949Z,5.00
2018-12-10T07:39:51.995Z,5.00
2018-12-10T07:42:25.934Z,5.00
2018-12-10T07:45:04.099Z,5.00
2018-12-10T07:47:37.804Z,5.10
2018-12-10T07:50:08.901Z,5.10
2018-12-10T07:52:42.434Z,5.10
2018-12-10T07:55:16.395Z,5.10
2018-12-10T07:57:54.341Z,5.10
2018-12-10T08:00:32.624Z,5.20
2018-12-10T08:03:06.533Z,5.30
2018-12-10T08:05:40.152Z,5.40
2018-12-10T08:08:14.116Z,5.40
2018-12-10T08:10:48.229Z,5.50
2018-12-10T08:13:22.139Z,5.50
2018-12-10T08:15:59.272Z,5.50
2018-12-10T08:18:32.987Z,5.60
2018-12-10T08:21:06.998Z,5.60
2018-12-10T08:23:40.922Z,5.70
2018-12-10T08:26:14.144Z,5.70
2018-12-10T08:28:48.297Z,5.70
2018-12-10T08:31:22.132Z,5.70
2018-12-10T08:33:55.928Z,5.80
2018-12-10T08:36:29.727Z,5.80
2018-12-10T08:39:05.649Z,5.90
2018-12-10T08:41:39.660Z,5.90
2018-12-10T08:44:21.189Z,5.90
2018-12-10T08:46:54.490Z,5.80
2018-12-10T08:49:28.347Z,5.80
2018-12-10T08:52:02.100Z,5.80
2018-12-10T08:54:36.085Z,5.80
2018-12-10T08:57:10.004Z,5.80
2018-12-10T08:59:43.970Z,5.90
2018-12-10T09:02:21.675Z,6.00
2018-12-10T09:04:55.725Z,6.20
2018-12-10T09:07:33.464Z,6.40
2018-12-10T09:10:09.638Z,6.40
2018-12-10T09:12:47.106Z,6.50
2018-12-10T09:15:27.152Z,6.50
2018-12-10T09:18:00.494Z,6.50
2018-12-10T09:20:34.369Z,6.50
2018-12-10T09:23:08.488Z,6.40
2018-12-10T09:25:39.605Z,6.30
2018-12-10T09:28:19.464Z,6.20
2018-12-10T09:30:49.626Z,6.20
2018-12-10T09:33:23.867Z,6.10
2018-12-10T09:36:01.577Z,6.00
2018-12-10T09:38:35.582Z,6.00
2018-12-10T09:41:09.584Z,6.10
2018-12-10T09:43:43.782Z,6.10
2018-12-10T09:46:17.560Z,6.10
2018-12-10T09:48:51.307Z,6.00
2018-12-10T09:51:25.356Z,6.00
2018-12-10T09:54:01.296Z,6.00
2018-12-10T09:56:37.327Z,6.00
2018-12-10T09:59:10.592Z,6.00
2018-12-10T10:01:44.540Z,6.00
2018-12-10T10:04:18.463Z,6.00
2018-12-10T10:06:52.464Z,6.00
2018-12-10T10:09:27.612Z,6.00
2018-12-10T10:12:01.468Z,6.10
2018-12-10T10:14:39.233Z,6.20
2018-12-10T10:17:12.489Z,6.20
2018-12-10T10:19:46.256Z,6.30
2018-12-10T10:22:20.153Z,6.30
2018-12-10T10:24:54.173Z,6.30
2018-12-10T10:27:27.920Z,6.20
2018-12-10T10:30:05.835Z,6.20
2018-12-10T10:32:39.255Z,6.20
2018-12-10T10:35:13.286Z,6.20
2018-12-10T10:37:50.922Z,6.10
2018-12-10T10:40:25.494Z,6.10
2018-12-10T10:43:03.000Z,6.10
2018-12-10T10:45:36.848Z,6.10
2018-12-10T10:48:16.067Z,6.10
2018-12-10T10:50:49.396Z,6.00
2018-12-10T10:53:23.409Z,6.00
2018-12-10T10:55:57.335Z,6.00
2018-12-10T10:58:31.421Z,5.90
2018-12-10T11:01:13.029Z,6.10
2018-12-10T11:03:46.436Z,6.20
2018-12-10T11:06:20.341Z,6.20
2018-12-10T11:08:56.394Z,6.30
2018-12-10T11:11:30.380Z,6.30
2018-12-10T11:14:01.517Z,6.30
2018-12-10T11:16:35.210Z,6.40
2018-12-10T11:19:09.120Z,6.70
2018-12-10T11:21:40.365Z,7.20
2018-12-10T11:24:14.059Z,7.40
2018-12-10T11:26:48.025Z,7.30
2018-12-10T11:29:21.926Z,7.20
2018-12-10T11:31:55.747Z,7.20
2018-12-10T11:34:29.450Z,7.40
2018-12-10T11:37:03.366Z,7.60
2018-12-10T11:39:37.402Z,7.80
2018-12-10T11:42:10.669Z,7.80
2018-12-10T11:44:44.585Z,7.80
2018-12-10T11:47:22.515Z,7.60
2018-12-10T11:49:56.480Z,7.40
2018-12-10T11:52:30.366Z,7.40
2018-12-10T11:55:04.076Z,7.40
2018-12-10T11:57:38.031Z,7.60
2018-12-10T12:00:15.695Z,7.80
2018-12-10T12:02:49.590Z,7.80
2018-12-10T12:05:23.461Z,7.90
2018-12-10T12:08:00.550Z,8.10
2018-12-10T12:10:33.935Z,8.00
2018-12-10T12:13:07.840Z,7.90
2018-12-10T12:15:41.693Z,7.60
2018-12-10T12:18:14.900Z,7.60
2018-12-10T12:20:48.853Z,7.80
2018-12-10T12:23:22.853Z,7.70
2018-12-10T12:25:56.884Z,7.80
2018-12-10T12:28:32.678Z,7.80
2018-12-10T12:31:05.961Z,8.00
2018-12-10T12:33:51.255Z,8.10
2018-12-10T12:36:25.039Z,8.10
2018-12-10T12:38:59.317Z,8.20
2018-12-10T12:41:29.964Z,8.40
2018-12-10T12:44:04.475Z,8.40
2018-12-10T12:46:38.504Z,8.50
2018-12-10T12:49:12.296Z,8.60
2018-12-10T12:51:46.360Z,8.50
2018-12-10T12:54:20.481Z,8.40
2018-12-10T12:56:54.226Z,8.30
2018-12-10T12:59:28.131Z,8.10
2018-12-10T13:02:03.908Z,7.70
2018-12-10T13:04:51.855Z,7.40
2018-12-10T13:07:28.626Z,7.30
2018-12-10T13:10:06.578Z,7.20
2018-12-10T13:12:39.832Z,7.00
2018-12-10T13:15:13.988Z,7.00
2018-12-10T13:17:48.432Z,7.20
2018-12-10T13:20:21.843Z,7.30
2018-12-10T13:22:55.871Z,7.40
2018-12-10T13:25:33.830Z,7.50
2018-12-10T13:28:11.840Z,7.70
2018-12-10T13:30:46.787Z,7.70
2018-12-10T13:33:22.932Z,7.70
2018-12-10T13:35:58.946Z,7.50
2018-12-10T13:38:36.734Z,7.50
2018-12-10T13:46:16.285Z,7.20
2018-12-10T13:48:50.360Z,7.10
2018-12-10T13:51:24.403Z,7.00
2018-12-10T13:53:58.532Z,6.90
2018-12-10T13:56:32.435Z,6.90
2018-12-10T13:59:06.552Z,6.80
2018-12-10T14:01:40.569Z,6.90
2018-12-10T14:04:23.577Z,7.00
2018-12-10T14:06:57.408Z,7.00
2018-12-10T14:09:31.139Z,7.00
2018-12-10T14:12:04.989Z,7.10
2018-12-10T14:14:50.417Z,7.10
2018-12-10T14:17:23.982Z,7.10
2018-12-10T14:19:57.972Z,7.10
2018-12-10T14:22:32.140Z,7.10
2018-12-10T14:25:05.912Z,7.10
2018-12-10T14:27:39.340Z,7.10
2018-12-10T14:30:13.234Z,7.00
2018-12-10T14:32:47.389Z,6.90
2018-12-10T14:35:21.321Z,6.90
2018-12-10T14:37:54.548Z,6.80
2018-12-10T14:40:28.575Z,6.80
2018-12-10T14:43:02.396Z,6.60
2018-12-10T14:48:10.052Z,6.30
2018-12-10T14:50:43.958Z,6.20
2018-12-10T14:53:19.895Z,6.10
2018-12-10T14:55:53.884Z,6.00
2018-12-10T14:58:31.603Z,5.90
2018-12-10T15:01:05.742Z,5.80
2018-12-10T15:03:39.229Z,5.80
2018-12-10T15:06:13.412Z,5.70
2018-12-10T15:08:47.090Z,5.70
2018-12-10T15:11:18.152Z,5.70
2018-12-10T15:13:52.062Z,5.70
2018-12-10T15:16:25.966Z,5.70
2018-12-10T15:18:59.904Z,5.70
2018-12-10T15:21:33.933Z,5.60
2018-12-10T15:24:11.776Z,5.70
2018-12-10T15:26:47.951Z,5.70
2018-12-10T15:29:21.967Z,5.70
2018-12-10T15:31:55.945Z,5.80
2018-12-10T15:34:29.934Z,5.80
2018-12-10T15:37:04.013Z,5.80
2018-12-10T15:39:38.055Z,5.80
2018-12-10T15:42:11.989Z,5.90
2018-12-10T15:44:45.820Z,5.90
2018-12-10T15:47:19.885Z,5.90
2018-12-10T15:49:53.696Z,5.90
2018-12-10T15:52:27.736Z,5.90
2018-12-10T15:55:00.956Z,5.90
2018-12-10T15:57:38.769Z,5.90
2018-12-10T16:00:12.209Z,5.80
2018-12-10T16:02:46.115Z,5.70
2018-12-10T16:05:20.576Z,5.60
2018-12-10T16:07:54.597Z,5.60
2018-12-10T16:10:28.227Z,5.60
2018-12-10T16:13:01.911Z,5.60
2018-12-10T16:15:35.681Z,5.60
2018-12-10T16:18:09.669Z,5.60
2018-12-10T16:20:43.515Z,5.60
2018-12-10T16:23:19.430Z,5.60
2018-12-10T16:25:53.275Z,5.60
2018-12-10T16:28:27.108Z,5.60
2018-12-10T16:31:01.125Z,5.60
2018-12-10T16:33:34.831Z,5.60
2018-12-10T16:36:13.215Z,5.60
2018-12-10T16:38:46.863Z,5.60
2018-12-10T16:41:20.844Z,5.70
2018-12-10T16:43:58.659Z,5.70
2018-12-10T16:46:34.644Z,5.70
2018-12-10T16:49:08.670Z,5.70
2018-12-10T16:51:42.343Z,5.70
2018-12-10T16:54:15.644Z,5.70
2018-12-10T16:56:49.412Z,5.80
2018-12-10T16:59:23.352Z,5.80
2018-12-10T17:01:57.234Z,5.80
2018-12-10T17:04:31.310Z,5.80
2018-12-10T17:07:06.160Z,5.80
2018-12-10T17:09:44.262Z,5.80
2018-12-10T17:12:17.761Z,5.80
2018-12-10T17:14:55.704Z,5.80
2018-12-10T17:17:30.061Z,5.80
2018-12-10T17:20:04.715Z,5.80
2018-12-10T17:22:37.904Z,5.80
2018-12-10T17:25:11.749Z,5.80
2018-12-10T17:27:45.649Z,5.80
2018-12-10T17:30:19.680Z,5.80
2018-12-10T17:32:53.536Z,5.80
2018-12-10T17:35:31.211Z,5.80
2018-12-10T17:38:05.460Z,5.80
2018-12-10T17:40:38.809Z,5.70
2018-12-10T17:43:12.611Z,5.70
2018-12-10T17:45:46.720Z,5.70
2018-12-10T17:48:21.124Z,5.70
2018-12-10T17:50:58.405Z,5.70
2018-12-10T17:53:32.289Z,5.70
2018-12-10T17:56:05.649Z,5.70
2018-12-10T17:58:46.560Z,5.70
2018-12-10T18:01:20.404Z,5.70
2018-12-10T18:03:58.222Z,5.70
2018-12-10T18:06:35.405Z,5.70
2018-12-10T18:09:11.451Z,5.70
2018-12-10T18:11:45.415Z,5.70
2018-12-10T18:14:19.015Z,5.70
2018-12-10T18:16:52.863Z,5.70
2018-12-10T18:19:26.997Z,5.70
2018-12-10T18:22:02.949Z,5.70
2018-12-10T18:24:37.088Z,5.70
2018-12-10T18:27:11.352Z,5.70
2018-12-10T18:29:44.795Z,5.70
2018-12-10T18:32:18.949Z,5.70
2018-12-10T18:34:52.788Z,5.70
2018-12-10T18:37:27.073Z,5.70
2018-12-10T18:40:00.809Z,5.70
2018-12-10T18:42:34.716Z,5.70
2018-12-10T18:45:10.437Z,5.70
2018-12-10T18:47:43.711Z,5.60
2018-12-10T18:50:17.728Z,5.70
2018-12-10T18:52:51.799Z,5.70
2018-12-10T18:55:25.757Z,5.80
2018-12-10T18:57:59.877Z,5.70
2018-12-10T19:00:33.829Z,5.70
2018-12-10T19:03:11.896Z,5.50
2018-12-10T19:05:45.748Z,5.30
2018-12-10T19:08:26.384Z,5.10
2018-12-10T19:10:59.921Z,5.00
2018-12-10T19:13:37.601Z,4.80
2018-12-10T19:16:11.624Z,4.70
2018-12-10T19:18:45.439Z,4.60
2018-12-10T19:21:19.440Z,4.60
2018-12-10T19:23:53.248Z,4.60
2018-12-10T19:26:27.192Z,4.50
2018-12-10T19:29:01.184Z,4.40
2018-12-10T19:31:35.302Z,4.40
2018-12-10T19:34:09.020Z,4.30
2018-12-10T19:36:43.068Z,4.20
2018-12-10T19:39:16.980Z,4.10
2018-12-10T19:41:51.002Z,4.10
2018-12-10T19:44:25.025Z,4.10
2018-12-10T19:47:02.658Z,4.10
2018-12-10T19:49:36.808Z,4.10
2018-12-10T19:52:10.959Z,4.00
2018-12-10T19:54:48.909Z,4.00
2018-12-10T19:57:22.953Z,3.90
2018-12-10T19:59:56.762Z,3.90
2018-12-10T20:02:30.714Z,3.90
2018-12-10T20:05:05.205Z,3.90
2018-12-10T20:07:38.539Z,3.90
2018-12-10T20:10:12.657Z,3.90
2018-12-10T20:12:47.271Z,3.90
2018-12-10T20:15:30.133Z,3.80
2018-12-10T20:18:04.232Z,3.80
2018-12-10T20:20:39.164Z,3.80
2018-12-10T20:23:13.177Z,3.80
2018-12-10T20:25:47.043Z,3.80
2018-12-10T20:28:21.023Z,3.80
2018-12-10T20:30:55.669Z,3.80
2018-12-10T20:33:28.968Z,3.80
2018-12-10T20:36:04.024Z,3.80
2018-12-10T20:38:37.892Z,3.80
2018-12-10T20:41:11.959Z,3.80
2018-12-10T20:43:49.947Z,3.70
2018-12-10T20:46:23.957Z,3.70
2018-12-10T20:49:01.733Z,3.70
2018-12-10T20:51:35.557Z,3.80
2018-12-10T20:54:09.941Z,3.80
2018-12-10T20:59:17.468Z,3.80
2018-12-10T21:01:48.428Z,3.80
2018-12-10T21:04:22.253Z,3.80
2018-12-10T21:06:56.119Z,3.70
2018-12-10T21:09:30.013Z,3.70
2018-12-10T21:12:08.067Z,3.70
2018-12-10T21:14:41.909Z,3.70
2018-12-10T21:17:15.952Z,3.70
2018-12-10T21:19:49.884Z,3.70
2018-12-10T21:22:23.783Z,3.70
2018-12-10T21:24:57.483Z,3.70
2018-12-10T21:27:31.516Z,3.80
2018-12-10T21:30:07.993Z,3.80
2018-12-10T21:32:41.201Z,3.80
2018-12-10T21:35:15.108Z,3.90
2018-12-10T21:37:49.132Z,3.90
2018-12-10T21:40:23.220Z,3.90
2018-12-10T21:42:57.257Z,3.90
2018-12-10T21:45:31.198Z,3.90
2018-12-10T21:48:04.984Z,3.90
2018-12-10T21:50:38.900Z,3.90
2018-12-10T21:53:12.758Z,3.90
2018-12-10T21:55:46.489Z,4.00
2018-12-10T22:00:54.155Z,4.00
2018-12-10T22:03:31.968Z,4.00
2018-12-10T22:06:07.920Z,4.00
2018-12-10T22:08:45.650Z,4.00
2018-12-10T22:11:19.803Z,4.00
2018-12-10T22:13:53.679Z,4.00
2018-12-10T22:16:27.709Z,4.00
2018-12-10T22:19:01.633Z,4.00
2018-12-10T22:21:35.548Z,4.00
2018-12-10T22:24:09.505Z,3.90
2018-12-10T22:26:43.330Z,3.90
2018-12-10T22:29:17.343Z,3.90
2018-12-10T22:31:51.288Z,3.80
2018-12-10T22:34:25.202Z,3.80
2018-12-10T22:36:59.100Z,3.70
2018-12-10T22:39:33.144Z,3.60
2018-12-10T22:42:07.113Z,3.60
2018-12-10T22:44:40.900Z,3.60
2018-12-10T22:47:14.779Z,3.50
2018-12-10T22:49:48.822Z,3.50
2018-12-10T22:52:26.789Z,3.40
2018-12-10T22:55:00.736Z,3.30
2018-12-10T22:57:34.687Z,3.30
2018-12-10T23:00:09.072Z,3.20
2018-12-10T23:02:42.403Z,3.30
2018-12-10T23:05:16.510Z,3.30
2018-12-10T23:07:54.456Z,3.30
2018-12-10T23:10:28.484Z,3.30
2018-12-10T23:13:02.580Z,3.30
2018-12-10T23:15:36.395Z,3.30
2018-12-10T23:18:12.458Z,3.20
2018-12-10T23:20:46.291Z,3.20
2018-12-10T23:23:20.207Z,3.10
2018-12-10T23:25:54.116Z,3.10
2018-12-10T23:28:28.037Z,3.10
2018-12-10T23:31:01.931Z,3.10
2018-12-10T23:33:36.064Z,3.10
2018-12-10T23:36:09.366Z,3.10
2018-12-10T23:38:42.601Z,3.00
2018-12-10T23:41:16.411Z,3.00
2018-12-10T23:43:50.379Z,3.00
2018-12-10T23:46:24.304Z,3.00
2018-12-10T23:49:02.375Z,2.90
2018-12-10T23:51:39.860Z,2.80
2018-12-10T23:54:13.395Z,2.80
2018-12-10T23:56:47.371Z,2.70
2018-12-10T23:59:21.364Z,2.70
